createdAt,value
2023-02-26T00:01:33.226Z,97868.13
2023-02-26T00:04:03.341Z,97833.34
2023-02-26T00:06:34.594Z,97868.09
2023-02-26T00:09:04.077Z,97864.09
2023-02-26T00:11:32.991Z,97871.47
2023-02-26T00:14:00.676Z,97869.59
2023-02-26T00:16:31.404Z,97877.69
2023-02-26T00:19:02.201Z,97866.28
2023-02-26T00:21:30.791Z,97868.63
2023-02-26T00:23:59.062Z,97872.78
2023-02-26T00:26:27.855Z,97866.09
2023-02-26T00:28:56.437Z,97872.16
2023-02-26T00:31:25.254Z,97874.47
2023-02-26T00:33:54.854Z,97868.31
2023-02-26T00:36:41.970Z,97870.88
2023-02-26T00:39:50.741Z,97871.03
2023-02-26T00:42:18.742Z,97874.16
2023-02-26T00:44:46.548Z,97874.66
2023-02-26T00:47:26.200Z,97889.31
2023-02-26T00:50:20.674Z,97875.50
2023-02-26T00:53:00.368Z,97892.34
2023-02-26T00:55:29.400Z,97883.84
2023-02-26T00:57:57.428Z,97886.09
2023-02-26T01:00:25.278Z,97891.63
2023-02-26T01:02:53.146Z,97889.47
2023-02-26T01:05:21.226Z,97889.94
2023-02-26T01:08:02.692Z,97897.16
2023-02-26T01:10:30.850Z,97886.06
2023-02-26T01:12:58.562Z,97891.88
2023-02-26T01:15:26.553Z,97885.00
2023-02-26T01:18:08.635Z,97885.66
2023-02-26T01:20:47.899Z,97894.56
2023-02-26T01:23:44.181Z,97895.50
2023-02-26T01:26:17.984Z,97899.13
2023-02-26T01:28:45.842Z,97893.00
2023-02-26T01:31:42.849Z,97900.03
2023-02-26T01:34:20.325Z,97896.53
2023-02-26T01:36:57.167Z,97896.47
2023-02-26T01:39:32.516Z,97899.13
2023-02-26T01:42:22.268Z,97904.66
2023-02-26T01:45:02.169Z,97903.28
2023-02-26T01:48:11.664Z,97909.38
2023-02-26T01:50:49.490Z,97912.03
2023-02-26T01:53:26.227Z,97916.75
2023-02-26T01:56:00.375Z,97927.97
2023-02-26T01:58:33.803Z,97914.59
2023-02-26T02:01:02.466Z,97912.44
2023-02-26T02:03:33.443Z,97902.97
2023-02-26T02:06:08.652Z,97915.88
2023-02-26T02:08:36.620Z,97909.34
2023-02-26T02:11:07.413Z,97913.72
2023-02-26T02:13:53.194Z,97907.22
2023-02-26T02:16:47.533Z,97911.97
2023-02-26T02:19:34.770Z,97910.28
2023-02-26T02:22:29.851Z,97910.81
2023-02-26T02:25:22.546Z,97921.63
2023-02-26T02:28:20.592Z,97929.00
2023-02-26T02:31:09.590Z,97920.47
2023-02-26T02:33:55.771Z,97925.06
2023-02-26T02:36:53.899Z,97930.13
2023-02-26T02:39:35.701Z,97936.75
2023-02-26T02:42:06.364Z,97925.06
2023-02-26T02:44:39.552Z,97930.31
2023-02-26T02:47:10.176Z,97928.66
2023-02-26T02:49:45.312Z,97930.78
2023-02-26T02:52:30.366Z,97935.72
2023-02-26T02:55:05.908Z,97943.31
2023-02-26T02:57:52.135Z,97944.59
2023-02-26T03:00:22.849Z,97946.53
2023-02-26T03:02:58.371Z,97950.34
2023-02-26T03:05:26.719Z,97946.63
2023-02-26T03:07:59.430Z,97951.06
2023-02-26T03:10:27.251Z,97949.47
2023-02-26T03:12:55.364Z,97961.50
2023-02-26T03:15:48.839Z,97951.25
2023-02-26T03:18:54.338Z,97955.66
2023-02-26T03:21:49.516Z,97969.56
2023-02-26T03:24:36.048Z,97951.97
2023-02-26T03:27:30.103Z,97966.63
2023-02-26T03:30:22.978Z,97964.69
2023-02-26T03:33:10.137Z,97970.72
2023-02-26T03:35:51.375Z,97967.72
2023-02-26T03:38:32.259Z,97939.97
2023-02-26T03:41:14.522Z,97958.25
2023-02-26T03:44:11.317Z,97971.84
2023-02-26T03:46:46.410Z,97941.16
2023-02-26T03:49:20.998Z,97983.63
2023-02-26T03:51:50.070Z,97985.34
2023-02-26T03:55:11.083Z,97989.41
2023-02-26T03:57:54.013Z,97999.53
2023-02-26T04:00:56.078Z,97997.03
2023-02-26T04:03:28.122Z,98005.28
2023-02-26T04:05:56.874Z,98002.41
2023-02-26T04:08:25.104Z,98005.28
2023-02-26T04:11:00.396Z,98002.03
2023-02-26T04:13:29.010Z,98005.69
2023-02-26T04:15:57.702Z,98009.13
2023-02-26T04:18:26.168Z,98014.66
2023-02-26T04:20:53.887Z,98013.72
2023-02-26T04:23:21.528Z,98016.88
2023-02-26T04:25:49.405Z,98028.19
2023-02-26T04:28:17.587Z,98024.09
2023-02-26T04:30:45.510Z,98003.94
2023-02-26T04:33:20.303Z,98016.97
2023-02-26T04:35:49.275Z,98023.56
2023-02-26T04:38:21.013Z,98028.69
2023-02-26T04:40:50.694Z,98019.47
2023-02-26T04:43:20.055Z,98013.97
2023-02-26T04:45:59.107Z,98022.34
2023-02-26T04:48:27.015Z,98028.38
2023-02-26T04:50:58.124Z,98022.97
2023-02-26T04:53:25.960Z,98024.84
2023-02-26T04:55:53.506Z,98034.50
2023-02-26T04:58:21.662Z,98035.00
2023-02-26T05:00:51.105Z,98037.56
2023-02-26T05:03:18.907Z,98039.66
2023-02-26T05:05:50.611Z,98048.09
2023-02-26T05:08:18.253Z,98039.34
2023-02-26T05:11:08.548Z,98047.72
2023-02-26T05:13:40.780Z,98055.88
2023-02-26T05:16:11.721Z,98051.66
2023-02-26T05:18:39.404Z,98051.66
2023-02-26T05:21:10.069Z,98061.00
2023-02-26T05:23:40.435Z,98061.28
2023-02-26T05:26:11.207Z,98061.69
2023-02-26T05:28:38.786Z,98059.59
2023-02-26T05:31:12.261Z,98061.13
2023-02-26T05:33:40.009Z,98058.75
2023-02-26T05:36:07.702Z,98059.47
2023-02-26T05:38:35.639Z,98059.75
2023-02-26T05:41:03.311Z,98054.16
2023-02-26T05:43:31.133Z,98065.06
2023-02-26T05:45:58.745Z,98066.50
2023-02-26T05:48:26.436Z,98064.50
2023-02-26T05:50:53.978Z,98068.13
2023-02-26T05:53:21.559Z,98067.06
2023-02-26T05:55:50.604Z,98068.22
2023-02-26T05:58:20.805Z,98078.41
2023-02-26T06:00:50.945Z,98071.38
2023-02-26T06:03:18.512Z,98080.03
2023-02-26T06:05:48.866Z,98068.78
2023-02-26T06:08:22.068Z,98070.66
2023-02-26T06:10:52.703Z,98067.72
2023-02-26T06:13:23.092Z,98065.22
2023-02-26T06:15:52.604Z,98074.50
2023-02-26T06:18:20.162Z,98070.75
2023-02-26T06:20:47.796Z,98071.41
2023-02-26T06:23:18.156Z,98074.06
2023-02-26T06:25:45.948Z,98076.72
2023-02-26T06:28:13.603Z,98073.44
2023-02-26T06:30:41.659Z,98063.38
2023-02-26T06:33:09.305Z,98071.09
2023-02-26T06:35:36.889Z,98053.81
2023-02-26T06:38:05.029Z,98065.00
2023-02-26T06:40:32.569Z,98048.66
2023-02-26T06:43:00.252Z,98069.38
2023-02-26T06:45:27.853Z,98087.25
2023-02-26T06:47:55.303Z,98071.09
2023-02-26T06:50:25.680Z,98071.41
2023-02-26T06:52:53.201Z,98085.84
2023-02-26T06:55:22.352Z,98085.84
2023-02-26T06:57:49.924Z,98092.28
2023-02-26T07:00:17.672Z,98095.25
2023-02-26T07:02:45.369Z,98098.53
2023-02-26T07:05:13.016Z,98097.91
2023-02-26T07:07:43.506Z,98100.78
2023-02-26T07:10:12.937Z,98103.91
2023-02-26T07:12:40.507Z,98104.06
2023-02-26T07:15:08.782Z,98111.91
2023-02-26T07:17:36.350Z,98117.44
2023-02-26T07:20:10.358Z,98116.97
2023-02-26T07:22:38.760Z,98120.09
2023-02-26T07:25:07.661Z,98112.09
2023-02-26T07:27:35.363Z,98119.97
2023-02-26T07:30:03.200Z,98123.72
2023-02-26T07:32:32.231Z,98127.66
2023-02-26T07:34:59.993Z,98125.78
2023-02-26T07:37:27.698Z,98115.22
2023-02-26T07:39:55.741Z,98118.38
2023-02-26T07:42:26.329Z,98112.75
2023-02-26T07:44:53.879Z,98129.41
2023-02-26T07:47:21.493Z,98125.16
2023-02-26T07:49:49.017Z,98133.97
2023-02-26T07:52:17.010Z,98136.78
2023-02-26T07:54:44.617Z,98135.25
2023-02-26T07:57:12.265Z,98123.94
2023-02-26T07:59:39.924Z,98138.28
2023-02-26T08:02:08.242Z,98135.09
2023-02-26T08:04:35.854Z,98136.22
2023-02-26T08:07:03.656Z,98138.41
2023-02-26T08:09:31.280Z,98150.97
2023-02-26T08:11:58.865Z,98149.56
2023-02-26T08:14:26.479Z,98147.22
2023-02-26T08:16:54.110Z,98146.28
2023-02-26T08:19:21.704Z,98139.22
2023-02-26T08:21:50.625Z,98136.38
2023-02-26T08:24:18.386Z,98136.44
2023-02-26T08:26:46.620Z,98136.56
2023-02-26T08:29:14.366Z,98137.66
2023-02-26T08:31:42.178Z,98150.69
2023-02-26T08:34:10.034Z,98160.28
2023-02-26T08:36:37.585Z,98158.53
2023-02-26T08:39:05.245Z,98160.59
2023-02-26T08:41:33.098Z,98158.06
2023-02-26T08:44:01.605Z,98167.19
2023-02-26T08:46:29.866Z,98168.94
2023-02-26T08:48:58.326Z,98155.91
2023-02-26T08:51:28.372Z,98169.75
2023-02-26T08:57:03.955Z,98161.38
2023-02-26T08:59:31.470Z,98167.25
2023-02-26T09:01:59.074Z,98172.59
2023-02-26T09:04:28.719Z,98172.59
2023-02-26T09:06:58.362Z,98180.94
2023-02-26T09:09:26.093Z,98181.41
2023-02-26T09:11:53.687Z,98190.38
2023-02-26T09:14:21.200Z,98190.84
2023-02-26T09:16:51.125Z,98187.88
2023-02-26T09:19:18.833Z,98195.09
2023-02-26T09:21:46.608Z,98198.56
2023-02-26T09:24:14.341Z,98198.41
2023-02-26T09:26:41.935Z,98200.44
2023-02-26T09:29:09.838Z,98209.09
2023-02-26T09:31:37.624Z,98201.84
2023-02-26T09:34:06.094Z,98206.44
2023-02-26T09:36:33.757Z,98221.50
2023-02-26T09:39:01.351Z,98217.09
2023-02-26T09:41:36.816Z,98215.69
2023-02-26T09:44:07.366Z,98208.63
2023-02-26T09:46:57.170Z,98208.47
2023-02-26T09:49:31.627Z,98216.34
2023-02-26T09:52:24.338Z,98209.22
2023-02-26T09:54:56.747Z,98217.91
2023-02-26T09:57:33.478Z,98213.81
2023-02-26T10:00:40.005Z,98218.09
2023-02-26T10:03:26.216Z,98218.22
2023-02-26T10:06:09.197Z,98217.00
2023-02-26T10:09:03.841Z,98219.19
2023-02-26T10:11:34.981Z,98221.41
2023-02-26T10:14:07.557Z,98222.50
2023-02-26T10:16:41.608Z,98222.50
2023-02-26T10:19:15.164Z,98225.81
2023-02-26T10:22:19.760Z,98223.31
2023-02-26T10:25:13.630Z,98226.31
2023-02-26T10:28:01.927Z,98221.91
2023-02-26T10:30:41.835Z,98226.13
2023-02-26T10:33:35.948Z,98233.38
2023-02-26T10:36:14.621Z,98227.06
2023-02-26T10:38:44.476Z,98233.81
2023-02-26T10:41:19.316Z,98232.84
2023-02-26T10:44:14.751Z,98226.44
2023-02-26T10:46:52.566Z,98231.63
2023-02-26T10:49:46.298Z,98229.06
2023-02-26T10:52:36.235Z,98219.59
2023-02-26T10:55:26.782Z,98228.91
2023-02-26T10:58:13.267Z,98230.69
2023-02-26T11:00:47.093Z,98223.13
2023-02-26T11:03:22.211Z,98227.25
2023-02-26T11:05:50.738Z,98233.03
2023-02-26T11:08:27.978Z,98235.88
2023-02-26T11:11:04.723Z,98239.97
2023-02-26T11:13:35.002Z,98234.13
2023-02-26T11:16:14.553Z,98240.88
2023-02-26T11:18:45.121Z,98234.13
2023-02-26T11:21:23.071Z,98230.69
2023-02-26T11:24:03.419Z,98229.28
2023-02-26T11:26:37.546Z,98204.06
2023-02-26T11:29:06.657Z,98242.47
2023-02-26T11:31:34.524Z,98232.41
2023-02-26T11:34:09.340Z,98227.06
2023-02-26T11:36:41.119Z,98232.72
2023-02-26T11:39:21.627Z,98234.09
2023-02-26T11:41:51.582Z,98232.41
2023-02-26T11:44:38.868Z,98234.78
2023-02-26T11:47:30.778Z,98230.88
2023-02-26T11:50:05.991Z,98233.19
2023-02-26T11:52:34.968Z,98235.38
2023-02-26T11:55:06.605Z,98239.03
2023-02-26T11:57:34.287Z,98237.47
2023-02-26T12:00:17.323Z,98237.91
2023-02-26T12:02:46.630Z,98237.91
2023-02-26T12:05:17.505Z,98241.47
2023-02-26T12:07:47.230Z,98242.91
2023-02-26T12:10:33.362Z,98241.94
2023-02-26T12:13:26.695Z,98240.63
2023-02-26T12:16:06.665Z,98242.75
2023-02-26T12:19:06.838Z,98249.88
2023-02-26T12:21:58.608Z,98258.56
2023-02-26T12:25:01.451Z,98253.81
2023-02-26T12:27:52.148Z,98263.16
2023-02-26T12:30:39.719Z,98257.94
2023-02-26T12:33:19.454Z,98261.03
2023-02-26T12:36:18.005Z,98255.63
2023-02-26T12:38:52.744Z,98261.03
2023-02-26T12:41:40.859Z,98258.06
2023-02-26T12:44:36.104Z,98255.47
2023-02-26T12:47:27.815Z,98251.03
2023-02-26T12:50:21.479Z,98257.78
2023-02-26T12:53:00.909Z,98258.59
2023-02-26T12:55:53.150Z,98260.53
2023-02-26T12:58:32.320Z,98262.59
2023-02-26T13:01:16.266Z,98266.22
2023-02-26T13:04:04.278Z,98265.91
2023-02-26T13:07:02.550Z,98267.81
2023-02-26T13:10:11.535Z,98274.59
2023-02-26T13:12:50.741Z,98273.81
2023-02-26T13:15:44.466Z,98274.00
2023-02-26T13:18:42.255Z,98275.28
2023-02-26T13:21:17.363Z,98276.53
2023-02-26T13:24:07.330Z,98282.06
2023-02-26T13:26:36.803Z,98277.94
2023-02-26T13:29:30.069Z,98281.63
2023-02-26T13:32:06.065Z,98279.25
2023-02-26T13:34:48.696Z,98286.97
2023-02-26T13:37:46.430Z,98289.47
2023-02-26T13:40:32.625Z,98295.75
2023-02-26T13:43:33.608Z,98292.81
2023-02-26T13:46:25.327Z,98304.63
2023-02-26T13:49:26.227Z,98301.66
2023-02-26T13:51:55.664Z,98304.91
2023-02-26T13:54:23.188Z,98300.66
2023-02-26T13:57:06.999Z,98308.91
2023-02-26T13:59:45.115Z,98309.78
2023-02-26T14:02:44.618Z,98305.63
2023-02-26T14:05:38.508Z,98301.88
2023-02-26T14:08:19.065Z,98307.88
2023-02-26T14:10:48.084Z,98313.34
2023-02-26T14:13:44.840Z,98308.34
2023-02-26T14:16:22.684Z,98303.25
2023-02-26T14:18:52.345Z,98309.47
2023-02-26T14:21:26.532Z,98309.97
2023-02-26T14:24:03.701Z,98325.91
2023-02-26T14:26:37.508Z,98314.00
2023-02-26T14:29:05.012Z,98308.31
2023-02-26T14:31:56.054Z,98310.41
2023-02-26T14:34:26.545Z,98312.19
2023-02-26T14:36:57.313Z,98303.28
2023-02-26T14:39:35.203Z,98301.47
2023-02-26T14:42:07.708Z,98289.94
2023-02-26T14:44:43.545Z,98297.69
2023-02-26T14:47:16.031Z,98291.59
2023-02-26T14:49:49.839Z,98298.16
2023-02-26T14:52:29.598Z,98300.94
2023-02-26T14:54:59.968Z,98291.69
2023-02-26T14:57:42.360Z,98295.41
2023-02-26T15:00:48.244Z,98283.38
2023-02-26T15:03:52.016Z,98282.00
2023-02-26T15:06:34.832Z,98289.28
2023-02-26T15:09:17.897Z,98289.13
2023-02-26T15:12:01.969Z,98272.50
2023-02-26T15:14:49.623Z,98271.00
2023-02-26T15:17:45.055Z,98276.97
2023-02-26T15:20:23.425Z,98283.75
2023-02-26T15:22:53.995Z,98277.63
2023-02-26T15:25:35.140Z,98284.72
2023-02-26T15:28:06.237Z,98283.28
2023-02-26T15:30:35.499Z,98283.34
2023-02-26T15:33:07.980Z,98292.06
2023-02-26T15:35:36.708Z,98294.25
2023-02-26T15:38:05.185Z,98287.56
2023-02-26T15:40:37.707Z,98267.91
2023-02-26T15:43:09.364Z,98270.38
2023-02-26T15:45:38.418Z,98268.22
2023-02-26T15:48:10.430Z,98259.16
2023-02-26T15:50:42.244Z,98250.63
2023-02-26T15:53:16.817Z,98247.97
2023-02-26T15:55:51.371Z,98250.06
2023-02-26T15:58:50.659Z,98255.66
2023-02-26T16:01:21.533Z,98246.00
2023-02-26T16:03:53.033Z,98249.16
2023-02-26T16:06:31.487Z,98245.91
2023-02-26T16:09:00.726Z,98245.69
2023-02-26T16:11:34.704Z,98239.63
2023-02-26T16:14:05.269Z,98235.81
2023-02-26T16:16:45.753Z,98242.38
2023-02-26T16:19:21.311Z,98226.69
2023-02-26T16:21:50.267Z,98228.63
2023-02-26T16:24:23.406Z,98230.28
2023-02-26T16:26:56.520Z,98222.97
2023-02-26T16:29:32.981Z,98216.59
2023-02-26T16:32:04.212Z,98213.47
2023-02-26T16:34:37.197Z,98219.47
2023-02-26T16:37:34.931Z,98215.69
2023-02-26T16:40:11.816Z,98217.47
2023-02-26T16:42:53.184Z,98212.72
2023-02-26T16:45:26.849Z,98225.47
2023-02-26T16:47:57.391Z,98215.25
2023-02-26T16:50:29.303Z,98212.03
2023-02-26T16:53:10.321Z,98215.81
2023-02-26T16:55:40.421Z,98193.81
2023-02-26T16:58:13.269Z,98196.13
2023-02-26T17:00:45.319Z,98181.69
2023-02-26T17:03:18.047Z,98184.34
2023-02-26T17:06:04.889Z,98190.97
2023-02-26T17:08:36.830Z,98193.72
2023-02-26T17:11:08.088Z,98197.88
2023-02-26T17:13:38.675Z,98193.88
2023-02-26T17:16:10.791Z,98181.16
2023-02-26T17:18:39.097Z,98190.41
2023-02-26T17:21:06.990Z,98167.06
2023-02-26T17:23:38.493Z,98177.56
2023-02-26T17:26:06.747Z,98177.88
2023-02-26T17:28:37.486Z,98165.50
2023-02-26T17:31:05.286Z,98165.75
2023-02-26T17:33:34.998Z,98162.84
2023-02-26T17:36:14.171Z,98172.75
2023-02-26T17:39:23.758Z,98130.38
2023-02-26T17:41:50.032Z,98172.06
2023-02-26T17:44:19.853Z,98167.63
2023-02-26T17:46:47.485Z,98174.31
2023-02-26T17:49:15.882Z,98162.09
2023-02-26T17:51:44.953Z,98162.59
2023-02-26T17:54:12.569Z,98159.81
2023-02-26T17:56:42.092Z,98161.03
2023-02-26T17:59:11.688Z,98164.59
2023-02-26T18:01:40.460Z,98154.50
2023-02-26T18:04:10.014Z,98152.81
2023-02-26T18:06:38.301Z,98130.66
2023-02-26T18:09:06.432Z,98147.28
2023-02-26T18:11:34.777Z,98138.19
2023-02-26T18:14:02.673Z,98131.50
2023-02-26T18:16:34.672Z,98131.28
2023-02-26T18:19:02.769Z,98132.72
2023-02-26T18:21:31.494Z,98135.00
2023-02-26T18:24:01.429Z,98147.81
2023-02-26T18:26:33.014Z,98132.75
2023-02-26T18:29:00.695Z,98131.81
2023-02-26T18:31:35.132Z,98115.06
2023-02-26T18:34:03.504Z,98115.88
2023-02-26T18:36:38.043Z,98111.00
2023-02-26T18:39:08.899Z,98108.06
2023-02-26T18:41:36.736Z,98107.72
2023-02-26T18:44:04.750Z,98094.56
2023-02-26T18:46:35.090Z,98088.19
2023-02-26T18:49:02.645Z,98084.47
2023-02-26T18:51:30.634Z,98081.94
2023-02-26T18:53:58.202Z,98083.06
2023-02-26T18:56:25.821Z,98075.47
2023-02-26T18:58:53.442Z,98075.47
2023-02-26T19:01:21.172Z,98064.22
2023-02-26T19:03:49.452Z,98069.75
2023-02-26T19:06:18.107Z,98070.16
2023-02-26T19:08:45.636Z,98067.00
2023-02-26T19:11:13.424Z,98065.94
2023-02-26T19:13:41.089Z,98060.78
2023-02-26T19:16:11.530Z,98047.84
2023-02-26T19:18:42.857Z,98040.63
2023-02-26T19:21:11.253Z,98039.47
2023-02-26T19:23:38.893Z,98045.25
2023-02-26T19:26:06.512Z,98052.16
2023-02-26T19:28:34.069Z,98069.78
2023-02-26T19:31:03.517Z,98053.31
2023-02-26T19:33:37.366Z,98048.22
2023-02-26T19:36:05.424Z,98041.78
2023-02-26T19:38:33.017Z,98028.22
2023-02-26T19:41:01.014Z,98029.19
2023-02-26T19:43:28.544Z,98025.22
2023-02-26T19:45:58.887Z,98029.19
2023-02-26T19:48:27.420Z,98013.38
2023-02-26T19:50:55.838Z,98007.41
2023-02-26T19:53:23.534Z,98008.72
2023-02-26T19:55:51.343Z,98000.91
2023-02-26T19:58:19.974Z,97983.66
2023-02-26T20:00:47.666Z,97969.41
2023-02-26T20:03:15.177Z,97968.88
2023-02-26T20:05:43.103Z,97969.41
2023-02-26T20:08:11.534Z,97956.78
2023-02-26T20:10:39.294Z,97942.50
2023-02-26T20:13:06.953Z,97943.41
2023-02-26T20:15:34.507Z,97938.06
2023-02-26T20:18:02.113Z,97930.84
2023-02-26T20:20:29.684Z,97933.81
2023-02-26T20:22:57.299Z,97896.53
2023-02-26T20:25:24.985Z,97902.50
2023-02-26T20:27:52.791Z,97912.28
2023-02-26T20:30:20.949Z,97904.69
2023-02-26T20:32:48.627Z,97881.53
2023-02-26T20:35:16.392Z,97911.13
2023-02-26T20:37:44.594Z,97881.19
2023-02-26T20:40:12.826Z,97874.63
2023-02-26T20:42:40.815Z,97880.53
2023-02-26T20:45:08.620Z,97883.78
2023-02-26T20:47:36.180Z,97868.69
2023-02-26T20:50:03.836Z,97875.75
2023-02-26T20:52:31.388Z,97882.94
2023-02-26T20:54:58.958Z,97866.56
2023-02-26T20:57:26.544Z,97863.16
2023-02-26T20:59:54.502Z,97874.28
2023-02-26T21:02:22.088Z,97873.88
2023-02-26T21:04:49.628Z,97861.56
2023-02-26T21:07:23.137Z,97843.50
2023-02-26T21:09:52.462Z,97862.44
2023-02-26T21:12:20.281Z,97847.00
2023-02-26T21:14:50.601Z,97872.94
2023-02-26T21:17:18.182Z,97841.47
2023-02-26T21:19:46.116Z,97849.22
2023-02-26T21:22:13.830Z,97838.88
2023-02-26T21:24:44.530Z,97830.75
2023-02-26T21:27:16.996Z,97819.06
2023-02-26T21:29:45.042Z,97825.94
2023-02-26T21:32:12.788Z,97827.78
2023-02-26T21:34:40.439Z,97830.44
2023-02-26T21:37:11.056Z,97819.50
2023-02-26T21:39:39.788Z,97807.41
2023-02-26T21:42:09.130Z,97795.34
2023-02-26T21:44:36.891Z,97801.06
2023-02-26T21:47:04.603Z,97786.59
2023-02-26T21:49:32.516Z,97805.25
2023-02-26T21:52:02.656Z,97821.47
2023-02-26T21:54:30.435Z,97801.75
2023-02-26T21:56:58.583Z,97791.47
2023-02-26T21:59:26.717Z,97798.91
2023-02-26T22:01:54.750Z,97793.69
2023-02-26T22:04:22.609Z,97784.78
2023-02-26T22:06:50.598Z,97779.81
2023-02-26T22:09:21.664Z,97795.66
2023-02-26T22:11:49.379Z,97788.31
2023-02-26T22:14:17.060Z,97777.97
2023-02-26T22:16:44.846Z,97774.53
2023-02-26T22:19:12.529Z,97771.03
2023-02-26T22:21:40.216Z,97747.34
2023-02-26T22:24:08.194Z,97755.44
2023-02-26T22:26:35.851Z,97747.19
2023-02-26T22:29:04.055Z,97744.75
2023-02-26T22:31:32.594Z,97738.75
2023-02-26T22:34:01.099Z,97743.28
2023-02-26T22:36:30.527Z,97731.63
2023-02-26T22:38:58.377Z,97734.88
2023-02-26T22:41:26.081Z,97729.41
2023-02-26T22:43:54.142Z,97717.50
2023-02-26T22:46:24.621Z,97751.50
2023-02-26T22:48:52.245Z,97710.16
2023-02-26T22:51:19.774Z,97709.06
2023-02-26T22:53:47.418Z,97714.00
2023-02-26T22:56:15.177Z,97714.78
2023-02-26T22:58:42.725Z,97696.97
2023-02-26T23:01:10.323Z,97697.28
2023-02-26T23:03:38.031Z,97702.00
2023-02-26T23:06:05.956Z,97701.91
2023-02-26T23:08:33.850Z,97691.00
2023-02-26T23:11:02.880Z,97689.81
2023-02-26T23:13:34.539Z,97687.47
2023-02-26T23:16:04.229Z,97662.91
2023-02-26T23:18:32.638Z,97669.16
2023-02-26T23:21:01.236Z,97692.09
2023-02-26T23:23:28.812Z,97673.22
2023-02-26T23:25:56.473Z,97675.34
2023-02-26T23:28:25.408Z,97651.00
2023-02-26T23:30:53.235Z,97638.22
2023-02-26T23:33:21.230Z,97640.47
2023-02-26T23:35:49.330Z,97638.69
2023-02-26T23:38:16.977Z,97626.19
2023-02-26T23:40:44.840Z,97626.09
2023-02-26T23:43:12.352Z,97605.66
2023-02-26T23:45:40.016Z,97593.75
2023-02-26T23:48:07.856Z,97589.16
2023-02-26T23:50:35.423Z,97590.03
2023-02-26T23:53:02.960Z,97573.78
2023-02-26T23:55:30.560Z,97611.75
2023-02-26T23:57:58.330Z,97587.63
